ソチ空港の過去48時間の天気

ソチ空港 (Adler)

現在時刻: 4/24 20:04 MSK (4/24 17:04 UTC) 以下の時間は現地時間です。

過去48時間のMETAR気象情報
時間 風向 風速(m/s) 視程 気温(℃) 湿度(%) 気圧(hPa) 天気現象
24 19:30 西北西 3 10km以上 12 82 1027
24 19:00 西北西 4 10km以上 13 77 1027
24 18:30 西北西 4 10km以上 13 77 1027
24 18:00 西北西 3 10km以上 13 77 1028
24 17:30 西 4 10km以上 13 77 1028
24 17:00 西 4 10km以上 14 77 1028
24 16:30 西南西 4 10km以上 14 72 1028
24 16:00 西 4 10km以上 14 77 1028
24 15:30 西 3 10km以上 14 77 1028
24 15:00 西 4 10km以上 14 72 1028
24 14:30 西 4 10km以上 14 77 1029
24 14:00 西 3 10km以上 14 72 1029
24 13:30 西南西 3 10km以上 15 72 1029
24 13:00 南西 3 10km以上 14 77 1029
24 12:30 南西 3 10km以上 14 77 1029
24 12:00 南西 4 10km以上 14 77 1029
24 11:30 南西 4 10km以上 14 72 1029
24 11:00 南南西 4 10km以上 14 72 1029
24 10:30 3 10km以上 14 72 1030
24 10:00 3 10km以上 13 77 1030
24 09:30 南南西 4 10km以上 13 77 1029
24 09:00 3 10km以上 14 72 1029
24 08:30 3 10km以上 13 77 1029
24 08:00 2 10km以上 14 67 1030
24 07:30 南東 2 10km以上 13 72 1030
24 07:00 1 10km以上 12 82 1030
24 06:30 北東 1 10km以上 11 87 1030
24 06:00 北東 1 10km以上 11 87 1030
24 05:30 北東 1 10km以上 11 87 1029
24 05:00 北東 2 10km以上 11 87 1029
24 04:30 北東 2 10km以上 11 87 1030
24 04:00 北東 2 10km以上 11 87 1030
24 03:30 北東 1 10km以上 11 87 1030
24 03:00 北東 2 10km以上 11 87 1029
24 02:30 東北東 1 10km以上 12 82 1029
24 02:00 北東 1 10km以上 12 82 1029
24 01:30 北東 1 10km以上 11 87 1029
24 01:00 東北東 1 10km以上 12 82 1029
24 00:30 1 10km以上 12 82 1029
24 00:00 1 10km以上 12 82 1029
23 23:30 1 10km以上 12 77 1029
23 23:00 静穏 0 10km以上 12 77 1029
23 22:30 南南西 1 10km以上 12 77 1029
23 22:00 静穏 0 10km以上 12 77 1029
23 21:30 1 10km以上 12 77 1029
23 21:00 静穏 0 10km以上 12 77 1029
23 20:30 南南西 1 10km以上 12 77 1029
23 20:00 西 1 10km以上 12 77 1029
23 19:30 西南西 1 10km以上 11 82 1028
23 19:00 西 2 10km以上 12 77 1028
23 18:30 西 2 10km以上 12 77 1028
23 18:00 西南西 3 10km以上 12 77 1028
23 17:30 西 3 10km以上 13 77 1028
23 17:00 西 3 10km以上 13 77 1028
23 16:30 西 3 10km以上 13 72 1028
23 16:00 西 3 10km以上 13 77 1028
23 15:30 西南西 3 10km以上 14 72 1028
23 15:00 西南西 4 10km以上 13 77 1027
23 14:30 南西 4 10km以上 14 72 1027
23 14:00 南南西 4 10km以上 14 77 1027
23 13:30 南南西 5 10km以上 14 77 1027
23 13:00 4 10km以上 14 72 1027
23 12:30 南南西 4 10km以上 14 72 1027
23 12:00 南南西 5 10km以上 14 67 1027
23 11:30 4 10km以上 13 67 1027
23 11:00 4 10km以上 13 67 1026
23 10:30 4 10km以上 13 72 1026
23 10:00 4 10km以上 13 72 1026
23 09:30 3 10km以上 13 72 1025
23 09:00 南南西 1 10km以上 13 67 1025
23 08:30 1 10km以上 12 77 1025
23 08:00 北北西 1 10km以上 11 87 1025
23 07:30 北東 2 10km以上 11 87 1025
23 07:00 東北東 1 10km以上 11 87 1025
23 06:30 東北東 1 10km以上 10 94 1024
23 06:00 東北東 1 10km以上 10 94 1024
23 05:30 北東 1 10km以上 10 94 1024
23 05:00 北北東 1 10km以上 10 94 1023
23 04:30 北北東 1 10km以上 10 94 1023
23 04:00 北北東 1 10km以上 10 94 1023 弱い雨
23 03:30 北北東 1 10km以上 10 94 1023 弱い雨
23 03:00 北東 1 10km以上 10 87 1023 弱い雨
23 02:30 東北東 1 10km以上 11 82 1022
23 02:00 南東 2 10km以上 11 82 1022
23 01:30 東北東 2 10km以上 10 87 1022
23 01:00 東北東 1 10km以上 10 87 1022
23 00:30 1 10km以上 9 93 1022
23 00:00 北東 2 10km以上 9 87 1022
22 23:30 北東 2 10km以上 10 82 1022
22 23:00 1 10km以上 11 76 1022
22 22:30 東南東 1 10km以上 11 82 1021
22 22:00 1 10km以上 11 82 1021
22 21:30 北東 1 10km以上 11 82 1021
22 21:00 東北東 1 10km以上 11 82 1021
22 20:30 1 10km以上 11 82 1021
URSS 241630Z 30003MPS 9999 BKN040 12/09 Q1027 R02/010070 R06/010070 NOSIG RMK R06/30004G09MPS MT OBSC QFE769
URSS 241600Z 30004MPS 9999 BKN040 13/09 Q1027 R02/010070 R06/010070 NOSIG RMK R06/31003G06MPS MT OBSC QFE769
URSS 241530Z 30004MPS 9999 BKN030 13/09 Q1027 R02/010070 R06/010070 NOSIG RMK R06/30005G08MPS MT OBSC QFE769
URSS 241500Z 29003MPS 9999 BKN030 13/09 Q1028 R02/010070 R06/010070 NOSIG RMK R06/29005MPS MT OBSC QFE769
URSS 241430Z 28004MPS 9999 FEW014 BKN040 13/09 Q1028 R02/010070 R06/010070 NOSIG RMK R06/29004MPS MT OBSC QFE769
URSS 241400Z 27004MPS 240V310 9999 BKN034 14/10 Q1028 R02/010070 R06/010070 NOSIG RMK R06/28004MPS MT OBSC QFE769
URSS 241330Z 25004MPS 9999 SCT034 14/09 Q1028 R02/010070 R06/010070 NOSIG RMK R06/28005MPS MT OBSC QFE770
URSS 241300Z 27004MPS 240V310 9999 SCT030 14/10 Q1028 R02/010070 R06/010070 NOSIG RMK R06/27005MPS MT OBSC QFE770
URSS 241230Z 27003MPS 240V310 9999 FEW025 14/10 Q1028 R02/010070 R06/010070 NOSIG RMK R06/29004G07MPS MT OBSC QFE770
URSS 241200Z 26004MPS 9999 FEW025 14/09 Q1028 R02/010070 R06/010070 NOSIG RMK R06/27004G07MPS MT OBSC QFE770
URSS 241130Z 27004MPS 9999 FEW030 14/10 Q1029 R02/010070 R06/010070 NOSIG RMK R06/28005MPS MT OBSC QFE770
URSS 241100Z 26003MPS 220V290 9999 FEW030 14/09 Q1029 R02/010070 R06/010070 NOSIG RMK R06/27004G08MPS MT OBSC QFE770
URSS 241030Z 25003MPS 220V320 9999 FEW030 15/10 Q1029 R02/010070 R06/010070 NOSIG RMK R06/27004MPS MT OBSC QFE770
URSS 241000Z 23003MPS 190V270 9999 FEW030 14/10 Q1029 R02/010070 R06/010070 NOSIG RMK R06/26004MPS MT OBSC QFE770
URSS 240930Z 22003MPS 180V280 9999 FEW023 14/10 Q1029 R02/010070 R06/010070 NOSIG RMK R06/27004MPS MT OBSC QFE771
URSS 240900Z 23004MPS 9999 FEW023 14/10 Q1029 R02/010070 R06/010070 NOSIG RMK R06/26004MPS MT OBSC QFE771
URSS 240830Z 23004MPS 9999 FEW020 14/09 Q1029 R02/010070 R06/010070 NOSIG RMK R06/22004MPS MT OBSC QFE771
URSS 240800Z 20004MPS 9999 FEW015 14/09 Q1029 R02/010070 R06/010070 NOSIG RMK R06/20004MPS MT OBSC QFE771
URSS 240730Z 17003MPS 9999 SCT015 14/09 Q1030 R02/010070 R06/010070 NOSIG RMK R06/17003MPS MT OBSC QFE771
URSS 240700Z 17003MPS 9999 SCT015 13/09 Q1030 R02/010070 R06/010070 NOSIG RMK R06/18004MPS MT OBSC QFE771
URSS 240630Z 21004MPS 9999 FEW022 13/09 Q1029 R02/010070 R06/010070 NOSIG RMK R06/18004MPS MT OBSC QFE771
URSS 240600Z 18003MPS 9999 FEW025 14/09 Q1029 R02/010070 R06/010070 NOSIG RMK R06/21003MPS MT OBSC QFE771
URSS 240530Z 19003MPS 9999 FEW026 13/09 Q1029 R02/010070 R06/010070 NOSIG RMK R06/21003MPS MT OBSC QFE771
URSS 240500Z 08002MPS 030V130 9999 FEW030 14/08 Q1030 R02/010070 R06/010070 NOSIG RMK R06/17001MPS MT OBSC QFE771
URSS 240430Z 13002MPS 080V170 9999 FEW030 13/08 Q1030 R02/010070 R06/010070 NOSIG RMK R06/12002MPS MT OBSC QFE771
URSS 240400Z 10001MPS 9999 FEW030 12/09 Q1030 R02/010070 R06/010070 NOSIG RMK R06/12002MPS MT OBSC QFE771
URSS 240330Z 04001MPS 9999 BKN031 11/09 Q1030 R02/010070 R06/010070 NOSIG RMK R06/07002MPS MT OBSC QFE771
URSS 240300Z 05001MPS 9999 BKN031 11/09 Q1030 R02/010070 R06/010070 NOSIG RMK R06/07003MPS MT OBSC QFE771
URSS 240230Z 04001MPS 9999 FEW015 OVC031 11/09 Q1029 R02/010070 R06/010070 NOSIG RMK R06/08002MPS MT OBSC QFE771
URSS 240200Z 05002MPS 9999 SCT015 OVC028 11/09 Q1029 R02/010070 R06/010070 NOSIG RMK R06/07002MPS MT OBSC QFE771
URSS 240130Z 05002MPS 9999 BKN015 OVC030 11/09 Q1030 R02/010070 R06/010070 NOSIG RMK R06/07002MPS MT OBSC QFE771
URSS 240100Z 05002MPS 9999 BKN015 OVC030 11/09 Q1030 R02/010070 R06/010070 NOSIG RMK R06/05002MPS MT OBSC QFE771
URSS 240030Z 04001MPS 9999 SCT015 OVC028 11/09 Q1030 R02/010070 R06/010070 NOSIG RMK R06/07002MPS MT OBSC QFE771
URSS 240000Z 04002MPS 9999 SCT015 OVC030 11/09 Q1029 R02/010070 R06/010070 NOSIG RMK R06/07001MPS MT OBSC QFE771
URSS 232330Z 07001MPS 9999 SCT015 OVC030 12/09 Q1029 R02/010070 R06/010070 NOSIG RMK R06/08001MPS MT OBSC QFE771
URSS 232300Z 04001MPS 9999 SCT015 OVC030 12/09 Q1029 R02/010070 R06/010070 NOSIG RMK R06/08001MPS MT OBSC QFE771
URSS 232230Z 04001MPS 9999 SCT015 OVC030 11/09 Q1029 R02/010070 R06/010070 NOSIG RMK R06/08001MPS MT OBSC QFE771
URSS 232200Z 06001MPS 9999 SCT015CB OVC030 12/09 Q1029 R02/010070 R06/010070 NOSIG RMK R06/10002MPS MT OBSC QFE770
URSS 232130Z 08001MPS 9999 BKN020CB OVC033 12/09 Q1029 R02/010070 R06/010070 NOSIG RMK R06/09002MPS MT OBSC QFE770
URSS 232100Z 08001MPS 9999 BKN020CB OVC033 12/09 Q1029 R02/010070 R06/010070 NOSIG RMK R06/10002MPS MT OBSC QFE770
URSS 232030Z 08001MPS 9999 SCT023CB OVC040 12/08 Q1029 R02/010070 R06/010070 NOSIG RMK R06/15001MPS MT OBSC QFE770
URSS 232000Z 00000MPS 9999 SCT025CB OVC040 12/08 Q1029 R02/010070 R06/010070 NOSIG RMK R06/18001MPS MT OBSC QFE770
URSS 231930Z 20001MPS 9999 SCT019CB OVC053 12/08 Q1029 R02/010070 R06/010070 NOSIG RMK R06/17001MPS MT OBSC QFE770
URSS 231900Z 00000MPS 9999 BKN030 OVC076 12/08 Q1029 R02/010070 R06/010070 NOSIG RMK R06/22001MPS MT OBSC QFE770
URSS 231830Z 09001MPS 9999 SCT031 OVC083 12/08 Q1029 R02/010070 R06/010070 NOSIG RMK R06/00000MPS MT OBSC QFE770
URSS 231800Z 00000MPS 9999 BKN035 OVC080 12/08 Q1029 R02/010070 R06/010070 NOSIG RMK R06/22001MPS MT OBSC QFE770
URSS 231730Z 20001MPS 9999 SCT040 OVC080 12/08 Q1029 R02/010070 R06/010070 NOSIG RMK R06/21001MPS MT OBSC QFE770
URSS 231700Z 26001MPS 9999 SCT039 BKN080 12/08 Q1029 R02/010070 R06/010070 NOSIG RMK R06/27002MPS MT OBSC QFE770
URSS 231630Z 24001MPS 9999 SCT034 BKN080 11/08 Q1028 R02/010070 R06/010070 NOSIG RMK R06/27002MPS MT OBSC QFE770
URSS 231600Z 26002MPS 9999 BKN038 BKN090 12/08 Q1028 R02/010070 R06/010070 NOSIG RMK R06/28002MPS MT OBSC QFE770
URSS 231530Z 27002MPS 240V320 9999 SCT023 BKN090 12/08 Q1028 R02/010070 R06/010070 NOSIG RMK R06/30003MPS MT OBSC QFE770
URSS 231500Z 25003MPS 9999 SCT018 BKN090 12/08 Q1028 R02/010070 R06/010070 NOSIG RMK R06/27004MPS MT OBSC QFE770
URSS 231430Z 27003MPS 9999 SCT017 BKN090 13/09 Q1028 R02/010070 R06/010070 NOSIG RMK R06/28004MPS MT OBSC QFE770
URSS 231400Z 27003MPS 9999 BKN017 BKN090 13/09 Q1028 R02/010070 R06/010070 NOSIG RMK R06/27004MPS MT OBSC QFE769
URSS 231330Z 26003MPS 210V290 9999 BKN018 BKN093 13/08 Q1028 R02/010070 R06/010070 NOSIG RMK R06/26003MPS MT OBSC QFE769
URSS 231300Z 27003MPS 240V310 9999 SCT020 BKN093 13/09 Q1028 R02/010070 R06/010070 NOSIG RMK R06/27004MPS MT OBSC QFE769
URSS 231230Z 25003MPS 9999 SCT020 BKN093 14/09 Q1028 R02/010070 R06/010070 NOSIG RMK R06/26004MPS MT OBSC QFE769
URSS 231200Z 24004MPS 200V270 9999 SCT019 13/09 Q1027 R02/010070 R06/010070 NOSIG RMK R06/26004MPS MT OBSC QFE769
URSS 231130Z 22004MPS 9999 BKN018 14/09 Q1027 R02/010070 R06/010070 NOSIG RMK R06/26004G07MPS MT OBSC QFE769
URSS 231100Z 21004MPS 180V250 9999 BKN020 14/10 Q1027 R02/010070 R06/010070 NOSIG RMK R06/22004G07MPS MT OBSC QFE769
URSS 231030Z 21005MPS 9999 SCT030 14/10 Q1027 R02/010070 R06/010070 NOSIG RMK R06/22004MPS MT OBSC QFE769
URSS 231000Z 19004MPS 9999 BKN030 14/09 Q1027 R02/010070 R06/010070 NOSIG RMK R06/19003MPS MT OBSC QFE769
URSS 230930Z 20004MPS 9999 BKN022 BKN080 14/09 Q1027 R02/010070 R06/010070 NOSIG RMK R06/19004MPS MT OBSC QFE769
URSS 230900Z 21005MPS 9999 SCT024 BKN080 14/08 Q1027 R02/010070 R06/010070 NOSIG RMK R06/18004G12MPS MT OBSC QFE769
URSS 230830Z 19004MPS 9999 BKN047 BKN080 13/07 Q1027 R02/010070 R06/010070 NOSIG RMK R06/19005MPS QFE768
URSS 230800Z 17004MPS 9999 BKN044 BKN080 13/07 Q1026 R02/010070 R06/010070 NOSIG RMK R06/19004MPS QFE768
URSS 230730Z 18004MPS 9999 BKN037 BKN080 13/08 Q1026 R02/150065 R06/190065 NOSIG RMK R06/18004MPS MT OBSC QFE768
URSS 230700Z 18004MPS 9999 BKN047 BKN080 13/08 Q1026 R02/150065 R06/190065 NOSIG RMK R06/19004MPS QFE768
URSS 230630Z 18003MPS 9999 SCT022 BKN080 13/08 Q1025 R02/150065 R06/190065 NOSIG RMK R06/17003MPS MT OBSC QFE768
URSS 230600Z 20001MPS 9999 FEW020 OVC080 13/07 Q1025 R02/150065 R06/190065 NOSIG RMK R06/13001MPS MT OBSC QFE767
URSS 230530Z 08001MPS 9999 FEW020 OVC090 12/08 Q1025 R02/150065 R06/190065 NOSIG RMK R06/13001MPS MT OBSC QFE767
URSS 230500Z 34001MPS 9999 FEW015 OVC090 11/09 Q1025 R02/150065 R06/190065 NOSIG RMK R06/10001MPS MT OBSC QFE767
URSS 230430Z 05002MPS 9999 FEW015 SCT040 OVC090 11/09 Q1025 R02/150065 R06/190065 NOSIG RMK R06/08002MPS MT OBSC QFE767
URSS 230400Z 06001MPS 9999 FEW020 OVC040 11/09 Q1025 R02/150065 R06/190065 NOSIG RMK R06/07002MPS MT OBSC QFE767
URSS 230330Z 07001MPS 9999 FEW020 OVC040 10/09 Q1024 R02/010070 R06/010070 NOSIG RMK R06/07002MPS MT OBSC QFE767
URSS 230300Z 07001MPS 9999 FEW020 OVC040 10/09 Q1024 R02/010070 R06/010070 NOSIG RMK R06/10002MPS MT OBSC QFE766
URSS 230230Z 05001MPS 9999 SCT015 OVC040 10/09 Q1024 R02/010070 R06/010070 NOSIG RMK R06/07002MPS MT OBSC QFE766
URSS 230200Z 02001MPS 9999 SCT015 OVC030 10/09 Q1023 R02/010070 R06/010070 NOSIG RMK R06/07002MPS MT OBSC QFE766
URSS 230130Z 03001MPS 9999 SCT015 OVC030 10/09 Q1023 R02/010070 R06/010070 NOSIG RMK R06/07002MPS MT OBSC QFE766
URSS 230100Z 02001MPS 9999 -RA SCT014 OVC030 10/09 Q1023 R02/010070 R06/010070 NOSIG RMK R06/05002MPS MT OBSC QFE766
URSS 230030Z 02001MPS 9999 -RA SCT012 OVC025 10/09 Q1023 R02/010070 R06/010070 NOSIG RMK R06/06002MPS MT OBSC QFE766
URSS 230000Z 04001MPS 9999 -RA OVC023 10/08 Q1023 R02/010070 R06/010070 NOSIG RMK R06/05001MPS MT OBSC QFE765
URSS 222330Z 07001MPS 9999 BKN017 BKN038 11/08 Q1022 R02/010070 R06/010070 NOSIG RMK R06/17002MPS MT OBSC QFE765
URSS 222300Z 13002MPS 080V200 9999 BKN017 BKN040 11/08 Q1022 R02/010070 R06/010070 NOSIG RMK R06/13002MPS MT OBSC QFE765
URSS 222230Z 07002MPS 9999 BKN015 BKN043 10/08 Q1022 R02/010070 R06/010070 NOSIG RMK R06/09002MPS MT OBSC QFE765
URSS 222200Z 07001MPS 9999 SCT016 BKN040 10/08 Q1022 R02/010070 R06/010070 NOSIG RMK R06/11001MPS MT OBSC QFE765
URSS 222130Z 08001MPS 9999 FEW014 BKN041 09/08 Q1022 R02/010070 R06/010070 NOSIG RMK R06/07002MPS MT OBSC QFE765
URSS 222100Z 05002MPS 9999 FEW017 BKN050 09/07 Q1022 R02/010070 R06/010070 NOSIG RMK R06/07003MPS MT OBSC QFE765
URSS 222030Z 05002MPS 9999 BKN050 BKN100 10/07 Q1022 R02/010070 R06/010070 NOSIG RMK R06/07002MPS QFE765
URSS 222000Z 09001MPS 9999 BKN050 BKN100 11/07 Q1022 R02/010070 R06/010070 NOSIG RMK R06/14001MPS QFE765
URSS 221930Z 12001MPS 9999 BKN050 BKN100 11/08 Q1021 R02/010070 R06/010070 NOSIG RMK R06/16001MPS QFE764
URSS 221900Z 09001MPS 9999 FEW016 BKN046 11/08 Q1021 R02/010070 R06/010070 NOSIG RMK R06/09002MPS MT OBSC QFE764
URSS 221830Z 05001MPS 9999 FEW016 BKN046 11/08 Q1021 R02/010070 R06/010070 NOSIG RMK R06/07002MPS MT OBSC QFE764
URSS 221800Z 06001MPS 9999 FEW016 BKN046 11/08 Q1021 R02/010070 R06/010070 NOSIG RMK R06/08002MPS MT OBSC QFE764
URSS 221730Z 08001MPS 9999 SCT018 OVC045 11/08 Q1021 R02/010070 R06/010070 NOSIG RMK R06/10002MPS MT OBSC QFE764